createdAt,value
2019-01-18T00:05:06.659Z,1015.2
2019-01-18T00:10:02.815Z,1015.2
2019-01-18T00:15:03.204Z,1015.3
2019-01-18T00:20:02.463Z,1015.3
2019-01-18T00:25:02.209Z,1015.4
2019-01-18T00:30:02.367Z,1015.5
2019-01-18T00:35:02.199Z,1015.6
2019-01-18T00:40:02.362Z,1015.6
2019-01-18T00:45:02.337Z,1015.7
2019-01-18T00:50:02.222Z,1015.8
2019-01-18T00:55:02.027Z,1015.9
2019-01-18T01:00:03.607Z,1016
2019-01-18T01:05:04.349Z,1016.1
2019-01-18T01:10:02.513Z,1016.2
2019-01-18T01:15:02.634Z,1016.3
2019-01-18T01:20:02.255Z,1016.4
2019-01-18T01:25:02.268Z,1016.4
2019-01-18T01:30:02.090Z,1016.4
2019-01-18T01:35:02.478Z,1016.5
2019-01-18T01:40:02.218Z,1016.6
2019-01-18T01:45:02.063Z,1016.6
2019-01-18T01:50:02.135Z,1016.7
2019-01-18T01:55:02.210Z,1016.8
2019-01-18T02:00:02.239Z,1016.9
2019-01-18T02:05:01.908Z,1016.9
2019-01-18T02:10:02.224Z,1017
2019-01-18T02:15:01.995Z,1017
2019-01-18T02:20:01.999Z,1017.2
2019-01-18T02:25:02.047Z,1017.2
2019-01-18T02:30:02.100Z,1017.2
2019-01-18T02:35:01.927Z,1017.3
2019-01-18T02:40:02.247Z,1017.3
2019-01-18T02:45:02.109Z,1017.4
2019-01-18T02:50:02.132Z,1017.4
2019-01-18T02:55:01.741Z,1017.4
2019-01-18T03:00:04.935Z,1017.4
2019-01-18T03:05:01.723Z,1017.5
2019-01-18T03:10:02.427Z,1017.6
2019-01-18T03:15:02.042Z,1017.6
2019-01-18T03:20:02.092Z,1017.6
2019-01-18T03:25:02.066Z,1017.6
2019-01-18T03:30:02.191Z,1017.7
2019-01-18T03:35:01.838Z,1017.7
2019-01-18T03:40:01.892Z,1017.7
2019-01-18T03:45:02.128Z,1017.8
2019-01-18T03:50:02.162Z,1018
2019-01-18T03:55:01.978Z,1018.1
2019-01-18T04:00:01.913Z,1018
2019-01-18T04:05:01.749Z,1018.1
2019-01-18T04:10:01.995Z,1018.1
2019-01-18T04:15:01.974Z,1018.1
2019-01-18T04:20:01.717Z,1018.2
2019-01-18T04:25:01.961Z,1018.3
2019-01-18T04:30:01.854Z,1018.3
2019-01-18T04:35:01.757Z,1018.4
2019-01-18T04:40:01.829Z,1018.5
2019-01-18T04:45:01.954Z,1018.5
2019-01-18T04:50:01.661Z,1018.5
2019-01-18T04:55:01.589Z,1018.5
2019-01-18T05:00:02.434Z,1018.5
2019-01-18T05:05:01.868Z,1018.5
2019-01-18T05:10:01.997Z,1018.6
2019-01-18T05:15:01.681Z,1018.6
2019-01-18T05:20:02.486Z,1018.6
2019-01-18T05:25:01.543Z,1018.7
2019-01-18T05:30:01.767Z,1018.7
2019-01-18T05:35:01.726Z,1018.8
2019-01-18T05:40:01.783Z,1018.8
2019-01-18T05:45:01.540Z,1018.9
2019-01-18T05:50:01.905Z,1019
2019-01-18T05:55:01.780Z,1019
2019-01-18T06:00:01.927Z,1019.1
2019-01-18T06:05:02.057Z,1019
2019-01-18T06:10:01.596Z,1019.1
2019-01-18T06:15:01.538Z,1019.1
2019-01-18T06:20:01.620Z,1019.1
2019-01-18T06:25:01.681Z,1019.1
2019-01-18T06:30:01.463Z,1019.2
2019-01-18T06:35:01.455Z,1019.2
2019-01-18T06:40:01.848Z,1019.2
2019-01-18T06:45:01.582Z,1019.2
2019-01-18T06:50:01.930Z,1019.2
2019-01-18T06:55:01.448Z,1019.2
2019-01-18T07:00:01.861Z,1019.3
2019-01-18T07:05:01.677Z,1019.3
2019-01-18T07:10:01.965Z,1019.4
2019-01-18T07:15:01.745Z,1019.4
2019-01-18T07:20:01.670Z,1019.5
2019-01-18T07:25:01.545Z,1019.5
2019-01-18T07:30:01.732Z,1019.5
2019-01-18T07:35:01.444Z,1019.6
2019-01-18T07:40:01.730Z,1019.6
2019-01-18T07:45:01.621Z,1019.7
2019-01-18T07:50:01.580Z,1019.7
2019-01-18T07:55:01.410Z,1019.8
2019-01-18T08:00:01.422Z,1019.9
2019-01-18T08:05:01.387Z,1020
2019-01-18T08:10:01.745Z,1020.1
2019-01-18T08:15:01.386Z,1020.1
2019-01-18T08:20:01.468Z,1020.1
2019-01-18T08:25:01.454Z,1020.2
2019-01-18T08:30:01.644Z,1020.2
2019-01-18T08:35:01.298Z,1020.3
2019-01-18T08:40:01.280Z,1020.3
2019-01-18T08:45:01.611Z,1020.4
2019-01-18T08:50:01.572Z,1020.5
2019-01-18T08:55:01.532Z,1020.5
2019-01-18T09:00:01.429Z,1020.6
2019-01-18T09:05:01.519Z,1020.7
2019-01-18T09:10:01.466Z,1020.7
2019-01-18T09:15:01.551Z,1020.8
2019-01-18T09:20:01.557Z,1020.8
2019-01-18T09:25:02.024Z,1020.8
2019-01-18T09:30:01.487Z,1020.8
2019-01-18T09:35:01.480Z,1020.9
2019-01-18T09:40:01.466Z,1020.9
2019-01-18T09:45:01.517Z,1020.8
2019-01-18T09:50:02.024Z,1020.9
2019-01-18T09:55:01.405Z,1020.9
2019-01-18T10:00:02.015Z,1020.9
2019-01-18T10:05:01.389Z,1021
2019-01-18T10:10:01.298Z,1021
2019-01-18T14:00:09.749Z,1020.2
2019-01-18T17:20:06.930Z,1020.1
2019-01-18T17:25:00.891Z,1020.2
2019-01-18T17:30:01.041Z,1020.2
2019-01-18T17:35:00.872Z,1020.2
2019-01-18T17:40:00.958Z,1020.1
2019-01-18T17:45:01.198Z,1020.2
2019-01-18T17:50:01.033Z,1020.2
2019-01-18T17:55:00.897Z,1020.2
2019-01-18T18:00:25.228Z,1020.2
2019-01-18T18:05:01.194Z,1020.2
2019-01-18T18:10:39.109Z,1020.2
2019-01-18T18:15:00.671Z,1020.2
2019-01-18T18:20:01.062Z,1020.2
2019-01-18T18:25:01.090Z,1020.2
2019-01-18T18:30:01.082Z,1020.1
2019-01-18T18:35:00.932Z,1020.2
2019-01-18T18:40:00.759Z,1020.2
2019-01-18T18:45:00.654Z,1020.2
2019-01-18T18:50:01.002Z,1020.2
2019-01-18T18:55:01.302Z,1020.1
2019-01-18T19:00:01.916Z,1020.1
2019-01-18T19:05:00.684Z,1020.1
2019-01-18T19:10:00.971Z,1020.1
2019-01-18T19:15:00.833Z,1020
2019-01-18T19:20:00.677Z,1020
2019-01-18T19:25:00.445Z,1020
2019-01-18T19:30:15.544Z,1020
2019-01-18T19:35:00.752Z,1020
2019-01-18T19:40:01.218Z,1020
2019-01-18T19:45:27.584Z,1020
2019-01-18T19:50:00.765Z,1019.9
2019-01-18T19:55:00.891Z,1019.9
2019-01-18T20:00:00.736Z,1019.9
2019-01-18T20:05:00.746Z,1019.9
2019-01-18T20:10:00.650Z,1019.9
2019-01-18T20:15:00.716Z,1019.9
2019-01-18T20:20:00.929Z,1019.9
2019-01-18T20:25:58.190Z,1019.9
2019-01-18T20:30:00.637Z,1019.9
2019-01-18T20:35:00.756Z,1019.9
2019-01-18T20:40:01.232Z,1019.9
2019-01-18T20:45:00.745Z,1019.9
2019-01-18T20:50:00.934Z,1019.9
2019-01-18T20:55:00.478Z,1019.9
2019-01-18T21:00:00.759Z,1020
2019-01-18T21:07:06.906Z,1020
2019-01-18T21:10:00.640Z,1020
2019-01-18T21:15:00.603Z,1019.9
2019-01-18T21:20:00.680Z,1020
2019-01-18T21:25:00.652Z,1020
2019-01-18T21:30:23.215Z,1020
2019-01-18T21:35:00.432Z,1020
2019-01-18T21:40:00.747Z,1020
2019-01-18T21:45:01.071Z,1020
2019-01-18T21:50:00.431Z,1020
2019-01-18T21:55:00.441Z,1019.9
2019-01-18T22:00:01.206Z,1019.9
2019-01-18T22:05:00.540Z,1019.9
2019-01-18T22:10:00.711Z,1019.9
2019-01-18T22:15:00.596Z,1020
2019-01-18T22:20:00.499Z,1019.9
2019-01-18T22:25:00.497Z,1020
2019-01-18T22:30:00.478Z,1019.9
2019-01-18T22:35:00.615Z,1019.9
2019-01-18T22:40:00.665Z,1019.9
2019-01-18T22:45:00.342Z,1019.9
2019-01-18T22:50:00.322Z,1019.9
2019-01-18T22:55:00.371Z,1019.8
2019-01-18T23:00:00.704Z,1019.9
2019-01-18T23:05:00.481Z,1019.8
2019-01-18T23:10:00.680Z,1019.8
2019-01-18T23:15:00.623Z,1019.8
2019-01-18T23:20:00.462Z,1019.8
2019-01-18T23:25:00.390Z,1019.8
2019-01-18T23:30:00.412Z,1019.8
2019-01-18T23:35:03.135Z,1019.8
2019-01-18T23:40:00.857Z,1019.7
2019-01-18T23:45:00.340Z,1019.6
2019-01-18T23:50:00.619Z,1019.7
2019-01-18T23:55:00.269Z,1019.7
